<?xml version="1.0" encoding="utf-8"?>
<gpx xmlns:xsi="http://www.w3.org/2001/XMLSchema-instance" xmlns:xsd="http://www.w3.org/2001/XMLSchema" version="1.1" creator="Shapelink.com" xmlns="http://www.topografix.com/GPX/1/1" xmlns:gpxtpx="http://www.garmin.com/xmlschemas/TrackPointExtension/v1">
  <metadata>
    <name>Löpning 4.46 km, 2019-08-11</name>
    <desc></desc>
    <author><name>Bengt Norberg</name></author> 
    <time>2019-08-11T09:26:17Z</time>
  </metadata>
  <trk>
    <name>Löpning 4.46 km, 2019-08-11</name>
    <trkseg>
      <trkpt lat="59.819713333931" lon="16.985098588524">
        <ele>38.2</ele>
        <time>2019-08-11T09:26:17Z</time>
      </trkpt>
      <trkpt lat="59.819534548004" lon="16.98515843529">
        <ele>36.6</ele>
        <time>2019-08-11T09:26:25Z</time>
      </trkpt>
      <trkpt lat="59.819471683754" lon="16.985168828846">
        <ele>36</ele>
        <time>2019-08-11T09:26:28Z</time>
      </trkpt>
      <trkpt lat="59.819406807848" lon="16.985203613731">
        <ele>36.2</ele>
        <time>2019-08-11T09:26:41Z</time>
      </trkpt>
      <trkpt lat="59.819462044569" lon="16.985591276606">
        <ele>36.4</ele>
        <time>2019-08-11T09:26:49Z</time>
      </trkpt>
      <trkpt lat="59.819519963498" lon="16.985982040784">
        <ele>38.4</ele>
        <time>2019-08-11T09:26:57Z</time>
      </trkpt>
      <trkpt lat="59.819564555206" lon="16.986329470539">
        <ele>38.8</ele>
        <time>2019-08-11T09:27:04Z</time>
      </trkpt>
      <trkpt lat="59.819621468307" lon="16.986684527823">
        <ele>38</ele>
        <time>2019-08-11T09:27:12Z</time>
      </trkpt>
      <trkpt lat="59.819671759707" lon="16.987034891243">
        <ele>36</ele>
        <time>2019-08-11T09:27:20Z</time>
      </trkpt>
      <trkpt lat="59.819723559849" lon="16.987405287404">
        <ele>34.4</ele>
        <time>2019-08-11T09:27:28Z</time>
      </trkpt>
      <trkpt lat="59.819781646416" lon="16.987770905882">
        <ele>34.4</ele>
        <time>2019-08-11T09:27:36Z</time>
      </trkpt>
      <trkpt lat="59.819851048548" lon="16.988136105265">
        <ele>35.2</ele>
        <time>2019-08-11T09:27:44Z</time>
      </trkpt>
      <trkpt lat="59.819914415712" lon="16.98848940235">
        <ele>34.8</ele>
        <time>2019-08-11T09:27:52Z</time>
      </trkpt>
      <trkpt lat="59.819977782876" lon="16.988848231489">
        <ele>34.2</ele>
        <time>2019-08-11T09:28:00Z</time>
      </trkpt>
      <trkpt lat="59.82002606262" lon="16.989202869678">
        <ele>33.2</ele>
        <time>2019-08-11T09:28:08Z</time>
      </trkpt>
      <trkpt lat="59.820045843904" lon="16.989285263755">
        <ele>33</ele>
        <time>2019-08-11T09:28:10Z</time>
      </trkpt>
      <trkpt lat="59.820128573257" lon="16.98931082855">
        <ele>32.8</ele>
        <time>2019-08-11T09:28:14Z</time>
      </trkpt>
      <trkpt lat="59.8203127236" lon="16.989190548285">
        <ele>30.6</ele>
        <time>2019-08-11T09:28:22Z</time>
      </trkpt>
      <trkpt lat="59.820501400169" lon="16.989075800074">
        <ele>30.6</ele>
        <time>2019-08-11T09:28:30Z</time>
      </trkpt>
      <trkpt lat="59.820687897444" lon="16.988993908911">
        <ele>30.4</ele>
        <time>2019-08-11T09:28:38Z</time>
      </trkpt>
      <trkpt lat="59.820883614809" lon="16.988910844282">
        <ele>31</ele>
        <time>2019-08-11T09:28:46Z</time>
      </trkpt>
      <trkpt lat="59.821071369369" lon="16.988831719146">
        <ele>31.4</ele>
        <time>2019-08-11T09:28:54Z</time>
      </trkpt>
      <trkpt lat="59.821266248544" lon="16.988727867405">
        <ele>31.6</ele>
        <time>2019-08-11T09:29:02Z</time>
      </trkpt>
      <trkpt lat="59.821465905402" lon="16.988649329002">
        <ele>32.8</ele>
        <time>2019-08-11T09:29:10Z</time>
      </trkpt>
      <trkpt lat="59.821652737953" lon="16.988520750656">
        <ele>32.2</ele>
        <time>2019-08-11T09:29:18Z</time>
      </trkpt>
      <trkpt lat="59.82184493492" lon="16.98838630498">
        <ele>32.8</ele>
        <time>2019-08-11T09:29:26Z</time>
      </trkpt>
      <trkpt lat="59.822031767471" lon="16.988248590363">
        <ele>33.6</ele>
        <time>2019-08-11T09:29:34Z</time>
      </trkpt>
      <trkpt lat="59.822214995805" lon="16.988153623436">
        <ele>34</ele>
        <time>2019-08-11T09:29:42Z</time>
      </trkpt>
      <trkpt lat="59.822396799216" lon="16.988019261579">
        <ele>33.6</ele>
        <time>2019-08-11T09:29:50Z</time>
      </trkpt>
      <trkpt lat="59.822585308147" lon="16.987898646038">
        <ele>33.8</ele>
        <time>2019-08-11T09:29:58Z</time>
      </trkpt>
      <trkpt lat="59.82277616401" lon="16.987794039926">
        <ele>33.8</ele>
        <time>2019-08-11T09:30:06Z</time>
      </trkpt>
      <trkpt lat="59.82296391857" lon="16.987706700528">
        <ele>35</ele>
        <time>2019-08-11T09:30:14Z</time>
      </trkpt>
      <trkpt lat="59.823153600967" lon="16.987598490199">
        <ele>35.2</ele>
        <time>2019-08-11T09:30:22Z</time>
      </trkpt>
      <trkpt lat="59.823346300848" lon="16.987496398657">
        <ele>36.4</ele>
        <time>2019-08-11T09:30:30Z</time>
      </trkpt>
      <trkpt lat="59.82352802044" lon="16.987368490863">
        <ele>36</ele>
        <time>2019-08-11T09:30:38Z</time>
      </trkpt>
      <trkpt lat="59.823711248774" lon="16.987240080155">
        <ele>35.6</ele>
        <time>2019-08-11T09:30:46Z</time>
      </trkpt>
      <trkpt lat="59.823900260619" lon="16.987140838459">
        <ele>36.4</ele>
        <time>2019-08-11T09:30:54Z</time>
      </trkpt>
      <trkpt lat="59.824088685731" lon="16.987046122989">
        <ele>36.8</ele>
        <time>2019-08-11T09:31:02Z</time>
      </trkpt>
      <trkpt lat="59.824284486915" lon="16.98695467646">
        <ele>36.8</ele>
        <time>2019-08-11T09:31:10Z</time>
      </trkpt>
      <trkpt lat="59.824476097149" lon="16.986865576863">
        <ele>36.6</ele>
        <time>2019-08-11T09:31:18Z</time>
      </trkpt>
      <trkpt lat="59.824662678243" lon="16.986770023203">
        <ele>36</ele>
        <time>2019-08-11T09:31:26Z</time>
      </trkpt>
      <trkpt lat="59.824853534106" lon="16.986682516167">
        <ele>36.2</ele>
        <time>2019-08-11T09:31:34Z</time>
      </trkpt>
      <trkpt lat="59.825042881227" lon="16.986577574779">
        <ele>36.2</ele>
        <time>2019-08-11T09:31:42Z</time>
      </trkpt>
      <trkpt lat="59.825234072366" lon="16.986474980323">
        <ele>35.8</ele>
        <time>2019-08-11T09:31:50Z</time>
      </trkpt>
      <trkpt lat="59.825427107523" lon="16.9863645907">
        <ele>36</ele>
        <time>2019-08-11T09:31:58Z</time>
      </trkpt>
      <trkpt lat="59.82562349544" lon="16.986255877457">
        <ele>35.6</ele>
        <time>2019-08-11T09:32:06Z</time>
      </trkpt>
      <trkpt lat="59.825795994942" lon="16.986151774259">
        <ele>35.8</ele>
        <time>2019-08-11T09:32:13Z</time>
      </trkpt>
      <trkpt lat="59.82598643171" lon="16.986035349668">
        <ele>36</ele>
        <time>2019-08-11T09:32:21Z</time>
      </trkpt>
      <trkpt lat="59.826175108279" lon="16.985921272009">
        <ele>36.4</ele>
        <time>2019-08-11T09:32:29Z</time>
      </trkpt>
      <trkpt lat="59.826387421806" lon="16.985799231545">
        <ele>36.8</ele>
        <time>2019-08-11T09:32:38Z</time>
      </trkpt>
      <trkpt lat="59.826446346563" lon="16.98546186007">
        <ele>37.2</ele>
        <time>2019-08-11T09:32:46Z</time>
      </trkpt>
      <trkpt lat="59.826400581389" lon="16.985070844435">
        <ele>39</ele>
        <time>2019-08-11T09:32:54Z</time>
      </trkpt>
      <trkpt lat="59.826369065445" lon="16.984715368056">
        <ele>41.4</ele>
        <time>2019-08-11T09:33:01Z</time>
      </trkpt>
      <trkpt lat="59.82633679513" lon="16.98434958194">
        <ele>43</ele>
        <time>2019-08-11T09:33:08Z</time>
      </trkpt>
      <trkpt lat="59.826307290842" lon="16.983992513">
        <ele>45</ele>
        <time>2019-08-11T09:33:15Z</time>
      </trkpt>
      <trkpt lat="59.826278876201" lon="16.983597306415">
        <ele>45.2</ele>
        <time>2019-08-11T09:33:23Z</time>
      </trkpt>
      <trkpt lat="59.826244007497" lon="16.983202435106">
        <ele>43.8</ele>
        <time>2019-08-11T09:33:31Z</time>
      </trkpt>
      <trkpt lat="59.826216179589" lon="16.982846204356">
        <ele>43.6</ele>
        <time>2019-08-11T09:33:38Z</time>
      </trkpt>
      <trkpt lat="59.826188686957" lon="16.982491901443">
        <ele>44.8</ele>
        <time>2019-08-11T09:33:45Z</time>
      </trkpt>
      <trkpt lat="59.826162283972" lon="16.982127456431">
        <ele>45.2</ele>
        <time>2019-08-11T09:33:52Z</time>
      </trkpt>
      <trkpt lat="59.826136383901" lon="16.981771225681">
        <ele>45.8</ele>
        <time>2019-08-11T09:33:59Z</time>
      </trkpt>
      <trkpt lat="59.826109142726" lon="16.981416000759">
        <ele>45.8</ele>
        <time>2019-08-11T09:34:06Z</time>
      </trkpt>
      <trkpt lat="59.826082739741" lon="16.981018782518">
        <ele>45.8</ele>
        <time>2019-08-11T09:34:14Z</time>
      </trkpt>
      <trkpt lat="59.826052481082" lon="16.980621815734">
        <ele>47.2</ele>
        <time>2019-08-11T09:34:22Z</time>
      </trkpt>
      <trkpt lat="59.826018366749" lon="16.980233482307">
        <ele>48.6</ele>
        <time>2019-08-11T09:34:30Z</time>
      </trkpt>
      <trkpt lat="59.825986850805" lon="16.979880855774">
        <ele>49.6</ele>
        <time>2019-08-11T09:34:37Z</time>
      </trkpt>
      <trkpt lat="59.825946701504" lon="16.979525379395">
        <ele>50.4</ele>
        <time>2019-08-11T09:34:44Z</time>
      </trkpt>
      <trkpt lat="59.82594787497" lon="16.979473495434">
        <ele>50.4</ele>
        <time>2019-08-11T09:34:45Z</time>
      </trkpt>
      <trkpt lat="59.825923064546" lon="16.979117264684">
        <ele>50.8</ele>
        <time>2019-08-11T09:34:52Z</time>
      </trkpt>
      <trkpt lat="59.825939409251" lon="16.978780899037">
        <ele>50.6</ele>
        <time>2019-08-11T09:35:00Z</time>
      </trkpt>
      <trkpt lat="59.825950138083" lon="16.979029673829">
        <ele>46.6</ele>
        <time>2019-08-11T09:35:05Z</time>
      </trkpt>
      <trkpt lat="59.825998082551" lon="16.979420940921">
        <ele>44.6</ele>
        <time>2019-08-11T09:35:12Z</time>
      </trkpt>
      <trkpt lat="59.826030604323" lon="16.979801227724">
        <ele>42.6</ele>
        <time>2019-08-11T09:35:19Z</time>
      </trkpt>
      <trkpt lat="59.826059605697" lon="16.980174222274">
        <ele>41.2</ele>
        <time>2019-08-11T09:35:26Z</time>
      </trkpt>
      <trkpt lat="59.826088271795" lon="16.980555263448">
        <ele>39.6</ele>
        <time>2019-08-11T09:35:33Z</time>
      </trkpt>
      <trkpt lat="59.826114171866" lon="16.980929180007">
        <ele>39</ele>
        <time>2019-08-11T09:35:40Z</time>
      </trkpt>
      <trkpt lat="59.826143005602" lon="16.98129102663">
        <ele>39.4</ele>
        <time>2019-08-11T09:35:47Z</time>
      </trkpt>
      <trkpt lat="59.826181059428" lon="16.981651113054">
        <ele>41</ele>
        <time>2019-08-11T09:35:54Z</time>
      </trkpt>
      <trkpt lat="59.826209222612" lon="16.98202109012">
        <ele>41.6</ele>
        <time>2019-08-11T09:36:01Z</time>
      </trkpt>
      <trkpt lat="59.826230931733" lon="16.982396934516">
        <ele>40.6</ele>
        <time>2019-08-11T09:36:08Z</time>
      </trkpt>
      <trkpt lat="59.826246354429" lon="16.982765319021">
        <ele>39</ele>
        <time>2019-08-11T09:36:15Z</time>
      </trkpt>
      <trkpt lat="59.826270326663" lon="16.983131021318">
        <ele>38.4</ele>
        <time>2019-08-11T09:36:22Z</time>
      </trkpt>
      <trkpt lat="59.8263057821" lon="16.983499908737">
        <ele>39.4</ele>
        <time>2019-08-11T09:36:29Z</time>
      </trkpt>
      <trkpt lat="59.826335537845" lon="16.983866700681">
        <ele>39</ele>
        <time>2019-08-11T09:36:36Z</time>
      </trkpt>
      <trkpt lat="59.826365964142" lon="16.984268361329">
        <ele>39.2</ele>
        <time>2019-08-11T09:36:44Z</time>
      </trkpt>
      <trkpt lat="59.826387170349" lon="16.984670524891">
        <ele>37.4</ele>
        <time>2019-08-11T09:36:52Z</time>
      </trkpt>
      <trkpt lat="59.826405191434" lon="16.985040501957">
        <ele>35.6</ele>
        <time>2019-08-11T09:36:59Z</time>
      </trkpt>
      <trkpt lat="59.82643234879" lon="16.985408635005">
        <ele>35</ele>
        <time>2019-08-11T09:37:06Z</time>
      </trkpt>
      <trkpt lat="59.826468307141" lon="16.985780288451">
        <ele>35.6</ele>
        <time>2019-08-11T09:37:13Z</time>
      </trkpt>
      <trkpt lat="59.826551958503" lon="16.985818845191">
        <ele>32.8</ele>
        <time>2019-08-11T09:37:17Z</time>
      </trkpt>
      <trkpt lat="59.826740551253" lon="16.985859078311">
        <ele>31.6</ele>
        <time>2019-08-11T09:37:24Z</time>
      </trkpt>
      <trkpt lat="59.826941381577" lon="16.985906519865">
        <ele>31.2</ele>
        <time>2019-08-11T09:37:31Z</time>
      </trkpt>
      <trkpt lat="59.82714061934" lon="16.985943484044">
        <ele>30.4</ele>
        <time>2019-08-11T09:37:38Z</time>
      </trkpt>
      <trkpt lat="59.827318818534" lon="16.985966366631">
        <ele>30.8</ele>
        <time>2019-08-11T09:37:44Z</time>
      </trkpt>
      <trkpt lat="59.827505148171" lon="16.985838542656">
        <ele>31</ele>
        <time>2019-08-11T09:37:51Z</time>
      </trkpt>
      <trkpt lat="59.82767873732" lon="16.985627318776">
        <ele>32.4</ele>
        <time>2019-08-11T09:37:58Z</time>
      </trkpt>
      <trkpt lat="59.827838077239" lon="16.985398576725">
        <ele>33.8</ele>
        <time>2019-08-11T09:38:05Z</time>
      </trkpt>
      <trkpt lat="59.82812130164" lon="16.98504360326">
        <ele>36</ele>
        <time>2019-08-11T09:38:17Z</time>
      </trkpt>
      <trkpt lat="59.828291286572" lon="16.984841348013">
        <ele>36.8</ele>
        <time>2019-08-11T09:38:24Z</time>
      </trkpt>
      <trkpt lat="59.828462696427" lon="16.984661723896">
        <ele>37.4</ele>
        <time>2019-08-11T09:38:31Z</time>
      </trkpt>
      <trkpt lat="59.828636034119" lon="16.984538761423">
        <ele>38.6</ele>
        <time>2019-08-11T09:38:38Z</time>
      </trkpt>
      <trkpt lat="59.828808365983" lon="16.984355365451">
        <ele>40.2</ele>
        <time>2019-08-11T09:38:45Z</time>
      </trkpt>
      <trkpt lat="59.828953708129" lon="16.984073482154">
        <ele>40.4</ele>
        <time>2019-08-11T09:38:52Z</time>
      </trkpt>
      <trkpt lat="59.82907683824" lon="16.983785396251">
        <ele>40.2</ele>
        <time>2019-08-11T09:38:59Z</time>
      </trkpt>
      <trkpt lat="59.829199046342" lon="16.983503177678">
        <ele>39.2</ele>
        <time>2019-08-11T09:39:06Z</time>
      </trkpt>
      <trkpt lat="59.829322930824" lon="16.98322724553">
        <ele>38.8</ele>
        <time>2019-08-11T09:39:13Z</time>
      </trkpt>
      <trkpt lat="59.829443546365" lon="16.982926838234">
        <ele>37.8</ele>
        <time>2019-08-11T09:39:20Z</time>
      </trkpt>
      <trkpt lat="59.82956969396" lon="16.982656605778">
        <ele>36.8</ele>
        <time>2019-08-11T09:39:27Z</time>
      </trkpt>
      <trkpt lat="59.829718556504" lon="16.982418895094">
        <ele>37.6</ele>
        <time>2019-08-11T09:39:34Z</time>
      </trkpt>
      <trkpt lat="59.82987060417" lon="16.982222004263">
        <ele>39.2</ele>
        <time>2019-08-11T09:39:41Z</time>
      </trkpt>
      <trkpt lat="59.83003991855" lon="16.98201857555">
        <ele>40.4</ele>
        <time>2019-08-11T09:39:49Z</time>
      </trkpt>
      <trkpt lat="59.83020168922" lon="16.981844148211">
        <ele>42</ele>
        <time>2019-08-11T09:39:56Z</time>
      </trkpt>
      <trkpt lat="59.830359436578" lon="16.981658908221">
        <ele>43.6</ele>
        <time>2019-08-11T09:40:03Z</time>
      </trkpt>
      <trkpt lat="59.830537132858" lon="16.981469058186">
        <ele>43.8</ele>
        <time>2019-08-11T09:40:11Z</time>
      </trkpt>
      <trkpt lat="59.830709967636" lon="16.981267222034">
        <ele>45</ele>
        <time>2019-08-11T09:40:19Z</time>
      </trkpt>
      <trkpt lat="59.830882970052" lon="16.981056165792">
        <ele>44</ele>
        <time>2019-08-11T09:40:27Z</time>
      </trkpt>
      <trkpt lat="59.831053709355" lon="16.98084008041">
        <ele>44.4</ele>
        <time>2019-08-11T09:40:35Z</time>
      </trkpt>
      <trkpt lat="59.831205757021" lon="16.980636819335">
        <ele>43.8</ele>
        <time>2019-08-11T09:40:42Z</time>
      </trkpt>
      <trkpt lat="59.831366438044" lon="16.980468426964">
        <ele>45.4</ele>
        <time>2019-08-11T09:40:49Z</time>
      </trkpt>
      <trkpt lat="59.831551761853" lon="16.980319229144">
        <ele>43.8</ele>
        <time>2019-08-11T09:40:57Z</time>
      </trkpt>
      <trkpt lat="59.83174144425" lon="16.980172126799">
        <ele>43</ele>
        <time>2019-08-11T09:41:05Z</time>
      </trkpt>
      <trkpt lat="59.8319216551" lon="16.980030221232">
        <ele>42</ele>
        <time>2019-08-11T09:41:13Z</time>
      </trkpt>
      <trkpt lat="59.832116534275" lon="16.979925447482">
        <ele>41.8</ele>
        <time>2019-08-11T09:41:21Z</time>
      </trkpt>
      <trkpt lat="59.83230554612" lon="16.979837269894">
        <ele>42.4</ele>
        <time>2019-08-11T09:41:29Z</time>
      </trkpt>
      <trkpt lat="59.832485170237" lon="16.979810866909">
        <ele>43.2</ele>
        <time>2019-08-11T09:41:36Z</time>
      </trkpt>
      <trkpt lat="59.832641325034" lon="16.979679271079">
        <ele>43.6</ele>
        <time>2019-08-11T09:41:44Z</time>
      </trkpt>
      <trkpt lat="59.832523726977" lon="16.979822266293">
        <ele>43</ele>
        <time>2019-08-11T09:41:50Z</time>
      </trkpt>
      <trkpt lat="59.832335553322" lon="16.979891752244">
        <ele>43.6</ele>
        <time>2019-08-11T09:41:57Z</time>
      </trkpt>
      <trkpt lat="59.832142853441" lon="16.98000691955">
        <ele>43.8</ele>
        <time>2019-08-11T09:42:04Z</time>
      </trkpt>
      <trkpt lat="59.831973455242" lon="16.980134575887">
        <ele>44</ele>
        <time>2019-08-11T09:42:10Z</time>
      </trkpt>
      <trkpt lat="59.831781761189" lon="16.98027681673">
        <ele>45</ele>
        <time>2019-08-11T09:42:17Z</time>
      </trkpt>
      <trkpt lat="59.831602053253" lon="16.980446550205">
        <ele>45</ele>
        <time>2019-08-11T09:42:24Z</time>
      </trkpt>
      <trkpt lat="59.83142963757" lon="16.980638663353">
        <ele>45.6</ele>
        <time>2019-08-11T09:42:31Z</time>
      </trkpt>
      <trkpt lat="59.831265184692" lon="16.980858604409">
        <ele>45.6</ele>
        <time>2019-08-11T09:42:38Z</time>
      </trkpt>
      <trkpt lat="59.831094780665" lon="16.981097740016">
        <ele>46.8</ele>
        <time>2019-08-11T09:42:45Z</time>
      </trkpt>
      <trkpt lat="59.830922448801" lon="16.981297815969">
        <ele>47.6</ele>
        <time>2019-08-11T09:42:52Z</time>
      </trkpt>
      <trkpt lat="59.830745758349" lon="16.981489761479">
        <ele>48.6</ele>
        <time>2019-08-11T09:42:59Z</time>
      </trkpt>
      <trkpt lat="59.830574097037" lon="16.981685730301">
        <ele>48</ele>
        <time>2019-08-11T09:43:06Z</time>
      </trkpt>
      <trkpt lat="59.830399837336" lon="16.981879855105">
        <ele>48</ele>
        <time>2019-08-11T09:43:13Z</time>
      </trkpt>
      <trkpt lat="59.830229684766" lon="16.98208563075">
        <ele>47</ele>
        <time>2019-08-11T09:43:20Z</time>
      </trkpt>
      <trkpt lat="59.830056933807" lon="16.982278330631">
        <ele>47.8</ele>
        <time>2019-08-11T09:43:27Z</time>
      </trkpt>
      <trkpt lat="59.82988736797" lon="16.982483351905">
        <ele>48</ele>
        <time>2019-08-11T09:43:34Z</time>
      </trkpt>
      <trkpt lat="59.829720903436" lon="16.982698766735">
        <ele>47.6</ele>
        <time>2019-08-11T09:43:41Z</time>
      </trkpt>
      <trkpt lat="59.829495346507" lon="16.983086848705">
        <ele>47.2</ele>
        <time>2019-08-11T09:43:52Z</time>
      </trkpt>
      <trkpt lat="59.82937020474" lon="16.983388764743">
        <ele>46.8</ele>
        <time>2019-08-11T09:43:59Z</time>
      </trkpt>
      <trkpt lat="59.829241207299" lon="16.983701158156">
        <ele>46</ele>
        <time>2019-08-11T09:44:06Z</time>
      </trkpt>
      <trkpt lat="59.829115730256" lon="16.983994021742">
        <ele>45.4</ele>
        <time>2019-08-11T09:44:13Z</time>
      </trkpt>
      <trkpt lat="59.828987487186" lon="16.984277665238">
        <ele>44.6</ele>
        <time>2019-08-11T09:44:20Z</time>
      </trkpt>
      <trkpt lat="59.828837451176" lon="16.984537839414">
        <ele>43.8</ele>
        <time>2019-08-11T09:44:27Z</time>
      </trkpt>
      <trkpt lat="59.828687834261" lon="16.984761217049">
        <ele>44.2</ele>
        <time>2019-08-11T09:44:33Z</time>
      </trkpt>
      <trkpt lat="59.828510054162" lon="16.98495894607">
        <ele>44.8</ele>
        <time>2019-08-11T09:44:40Z</time>
      </trkpt>
      <trkpt lat="59.828325149448" lon="16.985077633774">
        <ele>43.4</ele>
        <time>2019-08-11T09:44:47Z</time>
      </trkpt>
      <trkpt lat="59.828146782616" lon="16.985253737493">
        <ele>43.2</ele>
        <time>2019-08-11T09:44:54Z</time>
      </trkpt>
      <trkpt lat="59.827978725521" lon="16.985456914749">
        <ele>43</ele>
        <time>2019-08-11T09:45:01Z</time>
      </trkpt>
      <trkpt lat="59.827815110833" lon="16.985702755876">
        <ele>43.4</ele>
        <time>2019-08-11T09:45:08Z</time>
      </trkpt>
      <trkpt lat="59.827635738173" lon="16.985908866797">
        <ele>43</ele>
        <time>2019-08-11T09:45:15Z</time>
      </trkpt>
      <trkpt lat="59.827473213132" lon="16.986077175349">
        <ele>43.2</ele>
        <time>2019-08-11T09:45:21Z</time>
      </trkpt>
      <trkpt lat="59.827293672834" lon="16.986143727635">
        <ele>44.2</ele>
        <time>2019-08-11T09:45:27Z</time>
      </trkpt>
      <trkpt lat="59.827092591053" lon="16.986089412923">
        <ele>44.4</ele>
        <time>2019-08-11T09:45:34Z</time>
      </trkpt>
      <trkpt lat="59.826897711878" lon="16.98599746348">
        <ele>44.4</ele>
        <time>2019-08-11T09:45:41Z</time>
      </trkpt>
      <trkpt lat="59.826700401952" lon="16.985905765494">
        <ele>44.4</ele>
        <time>2019-08-11T09:45:48Z</time>
      </trkpt>
      <trkpt lat="59.826503762578" lon="16.985863436899">
        <ele>45.2</ele>
        <time>2019-08-11T09:45:55Z</time>
      </trkpt>
      <trkpt lat="59.826305614462" lon="16.98591783543">
        <ele>45.2</ele>
        <time>2019-08-11T09:46:02Z</time>
      </trkpt>
      <trkpt lat="59.82610377831" lon="16.986048425432">
        <ele>44.8</ele>
        <time>2019-08-11T09:46:09Z</time>
      </trkpt>
      <trkpt lat="59.825928848057" lon="16.986165772032">
        <ele>46.4</ele>
        <time>2019-08-11T09:46:15Z</time>
      </trkpt>
      <trkpt lat="59.82573832747" lon="16.986305833581">
        <ele>46.6</ele>
        <time>2019-08-11T09:46:22Z</time>
      </trkpt>
      <trkpt lat="59.825553422756" lon="16.986429382787">
        <ele>48.4</ele>
        <time>2019-08-11T09:46:29Z</time>
      </trkpt>
      <trkpt lat="59.825362650712" lon="16.98656407992">
        <ele>48.2</ele>
        <time>2019-08-11T09:46:36Z</time>
      </trkpt>
      <trkpt lat="59.825161066017" lon="16.986645635807">
        <ele>47.8</ele>
        <time>2019-08-11T09:46:43Z</time>
      </trkpt>
      <trkpt lat="59.824963420815" lon="16.986752002118">
        <ele>46.6</ele>
        <time>2019-08-11T09:46:50Z</time>
      </trkpt>
      <trkpt lat="59.824756555523" lon="16.986834480014">
        <ele>46.6</ele>
        <time>2019-08-11T09:46:57Z</time>
      </trkpt>
      <trkpt lat="59.824577685777" lon="16.986923411973">
        <ele>45.6</ele>
        <time>2019-08-11T09:47:03Z</time>
      </trkpt>
      <trkpt lat="59.824457992245" lon="16.986972613726">
        <ele>45.2</ele>
        <time>2019-08-11T09:47:13Z</time>
      </trkpt>
      <trkpt lat="59.824430080518" lon="16.986980492712">
        <ele>45</ele>
        <time>2019-08-11T09:47:15Z</time>
      </trkpt>
      <trkpt lat="59.824237380637" lon="16.987055007803">
        <ele>44.6</ele>
        <time>2019-08-11T09:47:22Z</time>
      </trkpt>
      <trkpt lat="59.824061193099" lon="16.987143101572">
        <ele>44</ele>
        <time>2019-08-11T09:47:28Z</time>
      </trkpt>
      <trkpt lat="59.823880730792" lon="16.987244438743">
        <ele>43.2</ele>
        <time>2019-08-11T09:47:34Z</time>
      </trkpt>
      <trkpt lat="59.823698508286" lon="16.987327587191">
        <ele>44</ele>
        <time>2019-08-11T09:47:40Z</time>
      </trkpt>
      <trkpt lat="59.823525924965" lon="16.987442167764">
        <ele>43.4</ele>
        <time>2019-08-11T09:47:46Z</time>
      </trkpt>
      <trkpt lat="59.823348144866" lon="16.987572506309">
        <ele>44.6</ele>
        <time>2019-08-11T09:47:52Z</time>
      </trkpt>
      <trkpt lat="59.823169191301" lon="16.987691110194">
        <ele>44.6</ele>
        <time>2019-08-11T09:47:58Z</time>
      </trkpt>
      <trkpt lat="59.82297481504" lon="16.987831087924">
        <ele>44.6</ele>
        <time>2019-08-11T09:48:05Z</time>
      </trkpt>
      <trkpt lat="59.822795358561" lon="16.987953212207">
        <ele>44.4</ele>
        <time>2019-08-11T09:48:11Z</time>
      </trkpt>
      <trkpt lat="59.822613303693" lon="16.988075671766">
        <ele>43.8</ele>
        <time>2019-08-11T09:48:17Z</time>
      </trkpt>
      <trkpt lat="59.822409791161" lon="16.988188575959">
        <ele>43</ele>
        <time>2019-08-11T09:48:24Z</time>
      </trkpt>
      <trkpt lat="59.822219270574" lon="16.988308604767">
        <ele>43.8</ele>
        <time>2019-08-11T09:48:30Z</time>
      </trkpt>
      <trkpt lat="59.822037299525" lon="16.988427543928">
        <ele>44.6</ele>
        <time>2019-08-11T09:48:36Z</time>
      </trkpt>
      <trkpt lat="59.821839486685" lon="16.988564252717">
        <ele>43.6</ele>
        <time>2019-08-11T09:48:43Z</time>
      </trkpt>
      <trkpt lat="59.821661874224" lon="16.988657375626">
        <ele>43</ele>
        <time>2019-08-11T09:48:49Z</time>
      </trkpt>
      <trkpt lat="59.821461546814" lon="16.988770866552">
        <ele>43.2</ele>
        <time>2019-08-11T09:48:56Z</time>
      </trkpt>
      <trkpt lat="59.82113750256" lon="16.988877065225">
        <ele>43.6</ele>
        <time>2019-08-11T09:49:07Z</time>
      </trkpt>
      <trkpt lat="59.820947401068" lon="16.988969517582">
        <ele>43.6</ele>
        <time>2019-08-11T09:49:13Z</time>
      </trkpt>
      <trkpt lat="59.820767693132" lon="16.989060042102">
        <ele>43.2</ele>
        <time>2019-08-11T09:49:19Z</time>
      </trkpt>
      <trkpt lat="59.820565689342" lon="16.989139921609">
        <ele>42.8</ele>
        <time>2019-08-11T09:49:26Z</time>
      </trkpt>
      <trkpt lat="59.820384891759" lon="16.989231535776">
        <ele>42.4</ele>
        <time>2019-08-11T09:49:32Z</time>
      </trkpt>
      <trkpt lat="59.82020124433" lon="16.989324407228">
        <ele>42.2</ele>
        <time>2019-08-11T09:49:38Z</time>
      </trkpt>
      <trkpt lat="59.820032013769" lon="16.989333794956">
        <ele>43.2</ele>
        <time>2019-08-11T09:49:44Z</time>
      </trkpt>
      <trkpt lat="59.819956325212" lon="16.988959878397">
        <ele>43.6</ele>
        <time>2019-08-11T09:49:50Z</time>
      </trkpt>
      <trkpt lat="59.819887509813" lon="16.988592248263">
        <ele>44</ele>
        <time>2019-08-11T09:49:56Z</time>
      </trkpt>
      <trkpt lat="59.819820873708" lon="16.988239957006">
        <ele>43.6</ele>
        <time>2019-08-11T09:50:02Z</time>
      </trkpt>
      <trkpt lat="59.819760104933" lon="16.987880373496">
        <ele>43.6</ele>
        <time>2019-08-11T09:50:08Z</time>
      </trkpt>
      <trkpt lat="59.819701347814" lon="16.987519365063">
        <ele>44.2</ele>
        <time>2019-08-11T09:50:14Z</time>
      </trkpt>
      <trkpt lat="59.819634376433" lon="16.987132456559">
        <ele>43</ele>
        <time>2019-08-11T09:50:21Z</time>
      </trkpt>
      <trkpt lat="59.819585258499" lon="16.9867836857">
        <ele>43.4</ele>
        <time>2019-08-11T09:50:27Z</time>
      </trkpt>
      <trkpt lat="59.819526333742" lon="16.986429466606">
        <ele>44.2</ele>
        <time>2019-08-11T09:50:33Z</time>
      </trkpt>
      <trkpt lat="59.819467576623" lon="16.986091843674">
        <ele>45.8</ele>
        <time>2019-08-11T09:50:39Z</time>
      </trkpt>
      <trkpt lat="59.819414016282" lon="16.985746090299">
        <ele>46.4</ele>
        <time>2019-08-11T09:50:45Z</time>
      </trkpt>
      <trkpt lat="59.819348721281" lon="16.985389105178">
        <ele>48.2</ele>
        <time>2019-08-11T09:50:51Z</time>
      </trkpt>
      <trkpt lat="59.819333550042" lon="16.985069670969">
        <ele>49.6</ele>
        <time>2019-08-11T09:50:57Z</time>
      </trkpt>
      <trkpt lat="59.819451818651" lon="16.984772197338">
        <ele>50.8</ele>
        <time>2019-08-11T09:51:04Z</time>
      </trkpt>
      <trkpt lat="59.81961534952" lon="16.984614198523">
        <ele>51.6</ele>
        <time>2019-08-11T09:51:10Z</time>
      </trkpt>
      <trkpt lat="59.819694474656" lon="16.984533648464">
        <ele>53.2</ele>
        <time>2019-08-11T09:51:13Z</time>
      </trkpt>
    </trkseg>
  </trk>
</gpx>